Time,TemperatureF,DewpointF,PressureIn,WindDirection,WindDirectionDegrees,WindSpeedMPH,WindSpeedGustMPH,Humidity,HourlyPrecipIn,Conditions,Clouds,dailyrainin,SolarRadiationWatts/m^2,SoftwareType,DateUTC
2013-01-07 00:04:00,35.2,17.9,30.14,South,172,11.0,0.0,49,0.00,,,0.00,1,WeatherHawk,2013-01-07 08:04:00,
2013-01-07 00:09:00,35.1,17.9,30.14,SSE,148,9.0,0.0,49,0.00,,,0.00,0,WeatherHawk,2013-01-07 08:09:00,
2013-01-07 00:14:00,35.1,17.9,30.13,SSE,166,8.0,0.0,49,0.00,,,0.00,0,WeatherHawk,2013-01-07 08:14:00,
2013-01-07 00:19:00,35.1,18.3,30.13,South,175,9.0,0.0,50,0.00,,,0.00,0,WeatherHawk,2013-01-07 08:19:00,
2013-01-07 00:24:00,35.0,17.7,30.13,South,186,13.0,0.0,49,0.00,,,0.00,0,WeatherHawk,2013-01-07 08:24:00,
2013-01-07 00:29:00,34.9,17.7,30.12,SSE,162,17.0,0.0,49,0.00,,,0.00,0,WeatherHawk,2013-01-07 08:29:00,
2013-01-07 00:34:00,35.1,17.9,30.12,SSE,154,13.0,0.0,49,0.00,,,0.00,0,WeatherHawk,2013-01-07 08:34:00,
2013-01-07 00:39:00,35.3,17.6,30.13,South,189,14.0,0.0,48,0.00,,,0.00,0,WeatherHawk,2013-01-07 08:39:00,
2013-01-07 00:44:00,35.2,17.5,30.12,South,179,16.0,0.0,48,0.00,,,0.00,0,WeatherHawk,2013-01-07 08:44:00,
2013-01-07 00:49:00,35.3,17.6,30.12,SSE,159,13.0,0.0,48,0.00,,,0.00,0,WeatherHawk,2013-01-07 08:49:00,
2013-01-07 00:54:00,35.4,17.7,30.12,SSE,159,10.0,0.0,48,0.00,,,0.00,0,WeatherHawk,2013-01-07 08:54:00,
2013-01-07 00:59:00,35.4,17.2,30.12,South,170,15.0,0.0,47,0.00,,,0.00,0,WeatherHawk,2013-01-07 08:59:00,
2013-01-07 01:04:00,35.4,17.2,30.12,SSE,154,9.0,-999.0,47,0.00,,,0.00,0,WeatherHawk,2013-01-07 09:04:00,
2013-01-07 01:09:00,35.5,17.3,30.12,SE,139,11.0,0.0,47,0.00,,,0.00,0,WeatherHawk,2013-01-07 09:09:00,
2013-01-07 01:14:00,35.5,17.2,30.11,South,188,11.0,0.0,47,0.00,,,0.00,0,WeatherHawk,2013-01-07 09:14:00,
2013-01-07 01:19:00,35.5,17.3,30.11,South,187,11.0,0.0,47,0.00,,,0.00,0,WeatherHawk,2013-01-07 09:19:00,
2013-01-07 01:24:00,35.8,17.1,30.10,South,177,11.0,-999.0,46,0.00,,,0.00,0,WeatherHawk,2013-01-07 09:24:00,
2013-01-07 01:29:00,35.7,16.9,30.10,South,180,12.0,0.0,46,0.00,,,0.00,0,WeatherHawk,2013-01-07 09:29:00,
2013-01-07 01:34:00,35.7,17.5,30.11,SSE,166,13.0,-999.0,47,0.00,,,0.00,0,WeatherHawk,2013-01-07 09:34:00,
2013-01-07 01:39:00,35.8,17.1,30.11,SSE,162,10.0,0.0,46,0.00,,,0.00,1,WeatherHawk,2013-01-07 09:39:00,
2013-01-07 01:44:00,36.0,17.3,30.12,South,175,12.0,0.0,46,0.00,,,0.00,0,WeatherHawk,2013-01-07 09:44:00,
2013-01-07 01:49:00,36.2,18.0,30.11,SSE,165,11.0,0.0,47,0.00,,,0.00,0,WeatherHawk,2013-01-07 09:49:00,
2013-01-07 01:54:00,36.5,18.2,30.11,SSE,168,16.0,0.0,47,0.00,,,0.00,0,WeatherHawk,2013-01-07 09:54:00,
2013-01-07 01:59:00,35.7,17.4,30.11,South,169,11.0,0.0,47,0.00,,,0.00,0,WeatherHawk,2013-01-07 09:59:00,
2013-01-07 02:04:00,35.5,17.8,30.12,SE,145,11.0,-999.0,48,0.00,,,0.00,0,WeatherHawk,2013-01-07 10:04:00,
2013-01-07 02:09:00,35.7,17.9,30.11,SE,142,10.0,0.0,48,0.00,,,0.00,0,WeatherHawk,2013-01-07 10:09:00,
2013-01-07 02:14:00,36.0,17.7,30.12,SE,128,10.0,0.0,47,0.00,,,0.00,0,WeatherHawk,2013-01-07 10:14:00,
2013-01-07 02:19:00,35.9,18.2,30.12,SSE,158,11.0,0.0,48,0.00,,,0.00,0,WeatherHawk,2013-01-07 10:19:00,
2013-01-07 02:24:00,35.6,18.4,30.13,SSE,153,13.0,-999.0,49,0.00,,,0.00,0,WeatherHawk,2013-01-07 10:24:00,
2013-01-07 02:29:00,35.4,18.1,30.13,SE,134,12.0,0.0,49,0.00,,,0.00,0,WeatherHawk,2013-01-07 10:29:00,
2013-01-07 02:34:00,35.5,18.8,30.13,SE,146,10.0,0.0,50,0.00,,,0.00,0,WeatherHawk,2013-01-07 10:34:00,
2013-01-07 02:39:00,35.8,18.5,30.13,SSE,148,11.0,0.0,49,0.00,,,0.00,0,WeatherHawk,2013-01-07 10:39:00,
2013-01-07 02:44:00,36.3,19.0,30.13,SSE,158,12.0,-999.0,49,0.00,,,0.00,1,WeatherHawk,2013-01-07 10:44:00,
2013-01-07 02:49:00,36.4,19.0,30.13,SE,144,11.0,0.0,49,0.00,,,0.00,0,WeatherHawk,2013-01-07 10:49:00,
2013-01-07 02:54:00,36.3,19.0,30.12,SSE,151,10.0,-999.0,49,0.00,,,0.00,0,WeatherHawk,2013-01-07 10:54:00,
2013-01-07 02:59:00,36.4,19.1,30.12,South,178,12.0,0.0,49,0.00,,,0.00,1,WeatherHawk,2013-01-07 10:59:00,
2013-01-07 03:04:00,36.6,19.7,30.12,SE,139,14.0,0.0,50,0.00,,,0.00,0,WeatherHawk,2013-01-07 11:04:00,
2013-01-07 03:09:00,36.7,19.8,30.12,SSE,153,13.0,0.0,50,0.00,,,0.00,0,WeatherHawk,2013-01-07 11:09:00,
2013-01-07 03:14:00,37.1,20.2,30.11,ESE,112,11.0,-999.0,50,0.00,,,0.00,0,WeatherHawk,2013-01-07 11:14:00,
2013-01-07 03:19:00,37.3,20.4,30.11,SE,143,13.0,0.0,50,0.00,,,0.00,1,WeatherHawk,2013-01-07 11:19:00,
2013-01-07 03:24:00,37.2,20.8,30.11,SSE,148,11.0,0.0,51,0.00,,,0.00,0,WeatherHawk,2013-01-07 11:24:00,
2013-01-07 03:29:00,37.7,20.7,30.10,SE,132,11.0,0.0,50,0.00,,,0.00,0,WeatherHawk,2013-01-07 11:29:00,
2013-01-07 03:34:00,38.1,21.6,30.10,SSE,150,13.0,0.0,51,0.00,,,0.00,0,WeatherHawk,2013-01-07 11:34:00,
2013-01-07 03:39:00,37.2,19.9,30.09,SSE,157,11.0,-999.0,49,0.00,,,0.00,0,WeatherHawk,2013-01-07 11:39:00,
2013-01-07 03:44:00,37.4,21.0,30.09,SE,134,12.0,0.0,51,0.00,,,0.00,1,WeatherHawk,2013-01-07 11:44:00,
2013-01-07 03:49:00,37.8,21.8,30.09,ESE,118,11.0,0.0,52,0.00,,,0.00,0,WeatherHawk,2013-01-07 11:49:00,
2013-01-07 03:54:00,39.2,23.0,30.09,SE,139,14.0,0.0,52,0.00,,,0.00,0,WeatherHawk,2013-01-07 11:54:00,
2013-01-07 03:59:00,38.1,22.0,30.08,SSE,161,12.0,0.0,52,0.00,,,0.00,0,WeatherHawk,2013-01-07 11:59:00,
2013-01-07 04:04:00,37.3,21.3,30.09,SE,145,8.0,-999.0,52,0.00,,,0.00,0,WeatherHawk,2013-01-07 12:04:00,
2013-01-07 04:09:00,37.5,21.0,30.08,SE,140,8.0,0.0,51,0.00,,,0.00,0,WeatherHawk,2013-01-07 12:09:00,
2013-01-07 04:14:00,39.1,23.0,30.08,SE,124,10.0,-999.0,52,0.00,,,0.00,0,WeatherHawk,2013-01-07 12:14:00,
2013-01-07 04:19:00,38.3,21.3,30.09,SSE,151,16.0,0.0,50,0.00,,,0.00,0,WeatherHawk,2013-01-07 12:19:00,
2013-01-07 04:24:00,37.7,20.7,30.09,SSE,147,8.0,0.0,50,0.00,,,0.00,0,WeatherHawk,2013-01-07 12:24:00,
2013-01-07 04:29:00,38.0,20.5,30.09,SSE,159,11.0,0.0,49,0.00,,,0.00,0,WeatherHawk,2013-01-07 12:29:00,
2013-01-07 04:34:00,39.0,22.4,30.09,SE,126,11.0,0.0,51,0.00,,,0.00,0,WeatherHawk,2013-01-07 12:34:00,
2013-01-07 04:39:00,38.1,21.2,30.09,SE,139,15.0,0.0,50,0.00,,,0.00,0,WeatherHawk,2013-01-07 12:39:00,
2013-01-07 04:44:00,38.0,21.5,30.09,SE,134,13.0,-999.0,51,0.00,,,0.00,0,WeatherHawk,2013-01-07 12:44:00,
2013-01-07 04:49:00,38.9,22.8,30.08,SSE,151,13.0,0.0,52,0.00,,,0.00,1,WeatherHawk,2013-01-07 12:49:00,
2013-01-07 04:54:00,39.2,22.6,30.09,SSE,147,9.0,-999.0,51,0.00,,,0.00,1,WeatherHawk,2013-01-07 12:54:00,
2013-01-07 04:59:00,39.5,23.4,30.08,SE,143,11.0,0.0,52,0.00,,,0.00,0,WeatherHawk,2013-01-07 12:59:00,
2013-01-07 05:04:00,39.4,23.7,30.08,SSE,152,8.0,-999.0,53,0.00,,,0.00,0,WeatherHawk,2013-01-07 13:04:00,
2013-01-07 05:09:00,41.4,24.7,30.07,SSE,150,15.0,0.0,51,0.00,,,0.00,0,WeatherHawk,2013-01-07 13:09:00,
2013-01-07 05:14:00,42.2,25.4,30.06,South,170,10.0,-999.0,51,0.00,,,0.00,0,WeatherHawk,2013-01-07 13:14:00,
2013-01-07 05:19:00,42.6,24.8,30.05,ESE,122,9.0,0.0,49,0.00,,,0.00,0,WeatherHawk,2013-01-07 13:19:00,
2013-01-07 05:24:00,42.6,25.3,30.06,ESE,107,9.0,-999.0,50,0.00,,,0.00,0,WeatherHawk,2013-01-07 13:24:00,
2013-01-07 05:29:00,42.3,24.5,30.06,SSE,148,10.0,0.0,49,0.00,,,0.00,1,WeatherHawk,2013-01-07 13:29:00,
2013-01-07 05:34:00,42.9,25.1,30.06,South,175,11.0,-999.0,49,0.00,,,0.00,1,WeatherHawk,2013-01-07 13:34:00,
2013-01-07 05:39:00,43.2,25.3,30.06,SSE,149,11.0,0.0,49,0.00,,,0.00,0,WeatherHawk,2013-01-07 13:39:00,
2013-01-07 05:44:00,43.6,25.7,30.07,SSE,168,15.0,0.0,49,0.00,,,0.00,0,WeatherHawk,2013-01-07 13:44:00,
2013-01-07 05:49:00,43.4,25.5,30.07,South,179,17.0,0.0,49,0.00,,,0.00,0,WeatherHawk,2013-01-07 13:49:00,
2013-01-07 05:54:00,42.8,25.0,30.06,SE,145,8.0,0.0,49,0.00,,,0.00,0,WeatherHawk,2013-01-07 13:54:00,
2013-01-07 05:59:00,42.6,24.8,30.05,SE,133,10.0,0.0,49,0.00,,,0.00,0,WeatherHawk,2013-01-07 13:59:00,
2013-01-07 06:04:00,42.4,25.1,30.05,SE,146,10.0,0.0,50,0.00,,,0.00,1,WeatherHawk,2013-01-07 14:04:00,
2013-01-07 06:09:00,42.6,25.3,30.04,SSE,166,12.0,0.0,50,0.00,,,0.00,1,WeatherHawk,2013-01-07 14:09:00,
2013-01-07 06:14:00,42.7,25.4,30.04,South,170,14.0,-999.0,50,0.00,,,0.00,0,WeatherHawk,2013-01-07 14:14:00,
2013-01-07 06:19:00,42.1,24.3,30.04,South,169,18.0,0.0,49,0.00,,,0.00,1,WeatherHawk,2013-01-07 14:19:00,
2013-01-07 06:24:00,41.6,24.8,30.04,SE,146,11.0,0.0,51,0.00,,,0.00,0,WeatherHawk,2013-01-07 14:24:00,
2013-01-07 06:29:00,41.1,24.4,30.04,SSE,165,6.0,0.0,51,0.00,,,0.00,1,WeatherHawk,2013-01-07 14:29:00,
2013-01-07 06:34:00,41.0,24.7,30.04,South,176,10.0,0.0,52,0.00,,,0.00,1,WeatherHawk,2013-01-07 14:34:00,
2013-01-07 06:39:00,39.9,23.7,30.03,SSE,158,10.0,0.0,52,0.00,,,0.00,0,WeatherHawk,2013-01-07 14:39:00,
2013-01-07 06:44:00,39.6,23.8,30.04,SSE,148,8.0,0.0,53,0.00,,,0.00,0,WeatherHawk,2013-01-07 14:44:00,
2013-01-07 06:49:00,39.6,24.3,30.04,SE,144,12.0,0.0,54,0.00,,,0.00,0,WeatherHawk,2013-01-07 14:49:00,
2013-01-07 06:54:00,39.6,24.4,30.03,SSE,165,13.0,-999.0,54,0.00,,,0.00,0,WeatherHawk,2013-01-07 14:54:00,
2013-01-07 06:59:00,39.8,24.5,30.03,SSE,167,14.0,0.0,54,0.00,,,0.00,0,WeatherHawk,2013-01-07 14:59:00,
2013-01-07 07:04:00,39.2,23.5,30.03,South,171,20.0,-999.0,53,0.00,,,0.00,0,WeatherHawk,2013-01-07 15:04:00,
2013-01-07 07:09:00,39.0,24.2,30.04,SE,146,18.0,0.0,55,0.00,,,0.00,0,WeatherHawk,2013-01-07 15:09:00,
2013-01-07 07:14:00,38.6,23.9,30.04,SSE,148,14.0,-999.0,55,0.00,,,0.00,0,WeatherHawk,2013-01-07 15:14:00,
2013-01-07 07:19:00,38.3,24.4,30.04,SSE,154,13.0,0.0,57,0.00,,,0.00,0,WeatherHawk,2013-01-07 15:19:00,
2013-01-07 07:24:00,38.0,24.6,30.04,SE,144,15.0,-999.0,58,0.00,,,0.00,0,WeatherHawk,2013-01-07 15:24:00,
2013-01-07 07:29:00,38.2,24.8,30.04,SE,134,12.0,0.0,58,0.00,,,0.00,0,WeatherHawk,2013-01-07 15:29:00,
2013-01-07 07:34:00,38.7,25.2,30.05,South,171,11.0,-999.0,58,0.00,,,0.00,0,WeatherHawk,2013-01-07 15:34:00,
2013-01-07 07:39:00,43.2,28.6,30.05,WSW,254,6.0,0.0,56,0.00,,,0.00,1,WeatherHawk,2013-01-07 15:39:00,
2013-01-07 07:44:00,45.0,28.0,30.05,SSW,212,12.0,0.0,51,0.00,,,0.00,2,WeatherHawk,2013-01-07 15:44:00,
2013-01-07 07:49:00,45.4,26.9,30.05,SW,229,12.0,0.0,48,0.00,,,0.00,3,WeatherHawk,2013-01-07 15:49:00,
2013-01-07 07:54:00,47.0,26.3,30.05,SSW,205,25.0,0.0,44,0.00,,,0.00,5,WeatherHawk,2013-01-07 15:54:00,
2013-01-07 07:59:00,46.0,25.8,30.05,SSW,198,13.0,0.0,45,0.00,,,0.00,9,WeatherHawk,2013-01-07 15:59:00,
2013-01-07 08:04:00,45.4,25.3,30.05,SSW,203,10.0,-999.0,45,0.00,,,0.00,13,WeatherHawk,2013-01-07 16:04:00,
2013-01-07 08:09:00,45.9,25.8,30.05,South,187,13.0,0.0,45,0.00,,,0.00,16,WeatherHawk,2013-01-07 16:09:00,
2013-01-07 08:14:00,46.0,25.3,30.06,SSE,163,8.0,0.0,44,0.00,,,0.00,20,WeatherHawk,2013-01-07 16:14:00,
2013-01-07 08:19:00,46.1,24.8,30.05,SSE,161,14.0,0.0,43,0.00,,,0.00,22,WeatherHawk,2013-01-07 16:19:00,
2013-01-07 08:24:00,46.2,24.9,30.05,SE,144,14.0,0.0,43,0.00,,,0.00,26,WeatherHawk,2013-01-07 16:24:00,
2013-01-07 08:29:00,45.7,24.0,30.05,SSE,152,6.0,0.0,42,0.00,,,0.00,30,WeatherHawk,2013-01-07 16:29:00,
2013-01-07 08:34:00,46.1,24.9,30.05,South,190,10.0,0.0,43,0.00,,,0.00,31,WeatherHawk,2013-01-07 16:34:00,
2013-01-07 08:39:00,47.1,25.2,30.06,South,175,15.0,0.0,42,0.00,,,0.00,35,WeatherHawk,2013-01-07 16:39:00,
2013-01-07 08:44:00,46.0,24.2,30.06,South,184,13.0,-999.0,42,0.00,,,0.00,37,WeatherHawk,2013-01-07 16:44:00,
2013-01-07 08:49:00,46.3,23.9,30.05,South,174,11.0,0.0,41,0.00,,,0.00,37,WeatherHawk,2013-01-07 16:49:00,
2013-01-07 08:54:00,45.8,24.0,30.06,WSW,246,6.0,-999.0,42,0.00,,,0.00,45,WeatherHawk,2013-01-07 16:54:00,
2013-01-07 08:59:00,47.3,24.2,30.07,South,182,13.0,0.0,40,0.00,,,0.00,51,WeatherHawk,2013-01-07 16:59:00,
2013-01-07 09:04:00,45.2,22.9,30.07,South,191,8.0,-999.0,41,0.00,,,0.00,54,WeatherHawk,2013-01-07 17:04:00,
2013-01-07 09:09:00,46.5,24.1,30.07,South,181,14.0,0.0,41,0.00,,,0.00,56,WeatherHawk,2013-01-07 17:09:00,
2013-01-07 09:14:00,46.7,24.2,30.07,South,185,18.0,0.0,41,0.00,,,0.00,69,WeatherHawk,2013-01-07 17:14:00,
2013-01-07 09:19:00,46.1,23.7,30.08,South,178,16.0,0.0,41,0.00,,,0.00,71,WeatherHawk,2013-01-07 17:19:00,
2013-01-07 09:24:00,45.5,23.8,30.09,SSW,193,12.0,0.0,42,0.00,,,0.00,78,WeatherHawk,2013-01-07 17:24:00,
2013-01-07 09:29:00,46.9,24.5,30.09,South,190,10.0,0.0,41,0.00,,,0.00,85,WeatherHawk,2013-01-07 17:29:00,
2013-01-07 09:34:00,48.5,25.9,30.09,South,186,11.0,-999.0,41,0.00,,,0.00,88,WeatherHawk,2013-01-07 17:34:00,
2013-01-07 09:39:00,46.8,23.8,30.09,SSW,204,10.0,0.0,40,0.00,,,0.00,87,WeatherHawk,2013-01-07 17:39:00,
2013-01-07 09:44:00,47.5,24.4,30.10,WSW,242,7.0,0.0,40,0.00,,,0.00,89,WeatherHawk,2013-01-07 17:44:00,
2013-01-07 09:49:00,47.9,23.6,30.09,South,188,8.0,0.0,38,0.00,,,0.00,88,WeatherHawk,2013-01-07 17:49:00,
2013-01-07 09:54:00,46.9,23.8,30.10,South,170,12.0,0.0,40,0.00,,,0.00,93,WeatherHawk,2013-01-07 17:54:00,
2013-01-07 09:59:00,48.2,23.8,30.10,WSW,249,8.0,0.0,38,0.00,,,0.00,98,WeatherHawk,2013-01-07 17:59:00,
2013-01-07 10:04:00,47.6,22.6,30.10,SSW,204,10.0,0.0,37,0.00,,,0.00,104,WeatherHawk,2013-01-07 18:04:00,
2013-01-07 10:09:00,49.0,23.8,30.10,WSW,255,10.0,0.0,37,0.00,,,0.00,103,WeatherHawk,2013-01-07 18:09:00,
2013-01-07 10:14:00,48.3,23.3,30.10,SW,235,10.0,0.0,37,0.00,,,0.00,108,WeatherHawk,2013-01-07 18:14:00,
2013-01-07 10:19:00,48.8,23.7,30.10,SW,228,11.0,0.0,37,0.00,,,0.00,127,WeatherHawk,2013-01-07 18:19:00,
2013-01-07 10:24:00,47.9,22.9,30.10,South,184,5.0,-999.0,37,0.00,,,0.00,143,WeatherHawk,2013-01-07 18:24:00,
2013-01-07 10:29:00,48.4,23.3,30.10,SW,218,5.0,0.0,37,0.00,,,0.00,138,WeatherHawk,2013-01-07 18:29:00,
2013-01-07 10:34:00,48.6,23.5,30.10,SSW,210,5.0,0.0,37,0.00,,,0.00,164,WeatherHawk,2013-01-07 18:34:00,
2013-01-07 10:39:00,49.2,24.0,30.10,SSW,213,14.0,0.0,37,0.00,,,0.00,143,WeatherHawk,2013-01-07 18:39:00,
2013-01-07 10:44:00,48.5,23.4,30.10,West,272,13.0,-999.0,37,0.00,,,0.00,138,WeatherHawk,2013-01-07 18:44:00,
2013-01-07 10:49:00,48.6,24.2,30.09,WSW,255,12.0,0.0,38,0.00,,,0.00,146,WeatherHawk,2013-01-07 18:49:00,
2013-01-07 10:54:00,49.5,25.0,30.09,SW,225,19.0,0.0,38,0.00,,,0.00,154,WeatherHawk,2013-01-07 18:54:00,
2013-01-07 10:59:00,49.5,25.0,30.09,SW,220,12.0,0.0,38,0.00,,,0.00,181,WeatherHawk,2013-01-07 18:59:00,
2013-01-07 11:04:00,48.7,24.2,30.09,WSW,238,14.0,-999.0,38,0.00,,,0.00,161,WeatherHawk,2013-01-07 19:04:00,
2013-01-07 11:09:00,50.0,24.7,30.08,West,267,16.0,0.0,37,0.00,,,0.00,202,WeatherHawk,2013-01-07 19:09:00,
2013-01-07 11:14:00,49.5,24.3,30.09,WSW,244,10.0,-999.0,37,0.00,,,0.00,210,WeatherHawk,2013-01-07 19:14:00,
2013-01-07 11:19:00,49.4,23.6,30.08,SW,222,13.0,0.0,36,0.00,,,0.00,185,WeatherHawk,2013-01-07 19:19:00,
2013-01-07 11:25:00,49.9,24.0,30.08,WSW,245,10.0,0.0,36,0.00,,,0.00,221,WeatherHawk,2013-01-07 19:25:00,
2013-01-07 11:30:00,49.5,23.6,30.08,WSW,248,7.0,0.0,36,0.00,,,0.00,244,WeatherHawk,2013-01-07 19:30:00,
2013-01-07 11:36:00,49.4,24.2,30.08,WSW,257,11.0,0.0,37,0.00,,,0.00,186,WeatherHawk,2013-01-07 19:36:00,
2013-01-07 11:41:00,49.9,24.7,30.08,South,191,12.0,0.0,37,0.00,,,0.00,192,WeatherHawk,2013-01-07 19:41:00,
2013-01-07 11:47:00,49.7,23.8,30.08,WSW,242,11.0,0.0,36,0.00,,,0.00,171,WeatherHawk,2013-01-07 19:47:00,
2013-01-07 11:52:00,50.2,23.6,30.07,South,190,24.0,0.0,35,0.00,,,0.00,172,WeatherHawk,2013-01-07 19:52:00,
2013-01-07 11:57:00,50.6,24.7,30.07,South,177,14.0,0.0,36,0.00,,,0.00,152,WeatherHawk,2013-01-07 19:57:00,
2013-01-07 12:02:00,50.3,23.7,30.08,West,259,12.0,0.0,35,0.00,,,0.00,203,WeatherHawk,2013-01-07 20:02:00,
2013-01-07 12:07:00,50.4,23.8,30.07,WSW,242,10.0,0.0,35,0.00,,,0.00,216,WeatherHawk,2013-01-07 20:07:00,
2013-01-07 12:12:00,49.8,23.3,30.07,West,260,7.0,0.0,35,0.00,,,0.00,235,WeatherHawk,2013-01-07 20:12:00,
2013-01-07 12:18:00,50.6,23.3,30.07,West,265,8.0,0.0,34,0.00,,,0.00,248,WeatherHawk,2013-01-07 20:18:00,
2013-01-07 12:22:00,50.8,23.5,30.08,West,277,5.0,0.0,34,0.00,,,0.00,233,WeatherHawk,2013-01-07 20:22:00,
2013-01-07 12:28:00,50.5,23.2,30.08,SSW,210,14.0,0.0,34,0.00,,,0.00,219,WeatherHawk,2013-01-07 20:28:00,
2013-01-07 12:33:00,50.2,23.6,30.08,SSW,198,10.0,0.0,35,0.00,,,0.00,198,WeatherHawk,2013-01-07 20:33:00,
2013-01-07 12:38:00,49.8,22.6,30.08,West,267,8.0,0.0,34,0.00,,,0.00,126,WeatherHawk,2013-01-07 20:38:00,
2013-01-07 12:43:00,49.9,23.3,30.07,SW,231,11.0,0.0,35,0.00,,,0.00,115,WeatherHawk,2013-01-07 20:43:00,
2013-01-07 12:48:00,50.1,22.8,30.07,SSW,196,14.0,0.0,34,0.00,,,0.00,113,WeatherHawk,2013-01-07 20:48:00,
2013-01-07 12:53:00,50.9,22.8,30.08,WSW,257,8.0,0.0,33,0.00,,,0.00,119,WeatherHawk,2013-01-07 20:53:00,
2013-01-07 12:59:00,51.0,23.0,30.08,SW,231,11.0,0.0,33,0.00,,,0.00,183,WeatherHawk,2013-01-07 20:59:00,
2013-01-07 13:04:00,51.5,21.9,30.08,SSE,165,10.0,0.0,31,0.00,,,0.00,232,WeatherHawk,2013-01-07 21:04:00,
2013-01-07 13:09:00,51.5,21.9,30.08,WSW,251,8.0,0.0,31,0.00,,,0.00,223,WeatherHawk,2013-01-07 21:09:00,
2013-01-07 13:14:00,51.3,21.7,30.08,WSW,242,7.0,0.0,31,0.00,,,0.00,237,WeatherHawk,2013-01-07 21:14:00,
2013-01-07 13:19:00,51.5,21.1,30.07,West,280,7.0,0.0,30,0.00,,,0.00,274,WeatherHawk,2013-01-07 21:19:00,
2013-01-07 13:24:00,51.3,21.7,30.07,SSW,193,8.0,0.0,31,0.00,,,0.00,245,WeatherHawk,2013-01-07 21:24:00,
2013-01-07 13:29:00,51.7,19.6,30.07,WSW,252,18.0,0.0,28,0.00,,,0.00,278,WeatherHawk,2013-01-07 21:29:00,
2013-01-07 13:34:00,51.5,19.5,30.08,SW,214,6.0,0.0,28,0.00,,,0.00,247,WeatherHawk,2013-01-07 21:34:00,
2013-01-07 13:39:00,51.3,20.9,30.08,SSW,196,11.0,0.0,30,0.00,,,0.00,245,WeatherHawk,2013-01-07 21:39:00,
2013-01-07 13:44:00,51.3,21.7,30.09,WSW,251,7.0,0.0,31,0.00,,,0.00,220,WeatherHawk,2013-01-07 21:44:00,
2013-01-07 13:49:00,50.6,21.1,30.09,West,275,8.0,0.0,31,0.00,,,0.00,210,WeatherHawk,2013-01-07 21:49:00,
2013-01-07 13:54:00,51.4,19.4,30.09,WSW,241,8.0,0.0,28,0.00,,,0.00,275,WeatherHawk,2013-01-07 21:54:00,
2013-01-07 13:59:00,51.2,19.2,30.09,WNW,293,14.0,0.0,28,0.00,,,0.00,271,WeatherHawk,2013-01-07 21:59:00,
2013-01-07 14:04:00,51.6,19.6,30.09,South,171,9.0,-999.0,28,0.00,,,0.00,151,WeatherHawk,2013-01-07 22:04:00,
2013-01-07 14:09:00,50.9,21.3,30.10,WSW,242,3.0,-999.0,31,0.00,,,0.00,139,WeatherHawk,2013-01-07 22:09:00,
2013-01-07 14:14:00,51.1,19.2,30.10,West,277,9.0,0.0,28,0.00,,,0.00,137,WeatherHawk,2013-01-07 22:14:00,
2013-01-07 14:19:00,51.0,19.0,30.10,South,185,9.0,-999.0,28,0.00,,,0.00,134,WeatherHawk,2013-01-07 22:19:00,
2013-01-07 14:24:00,50.4,19.4,30.10,West,261,6.0,0.0,29,0.00,,,0.00,105,WeatherHawk,2013-01-07 22:24:00,
2013-01-07 14:29:00,50.6,18.7,30.10,SSW,194,7.0,-999.0,28,0.00,,,0.00,88,WeatherHawk,2013-01-07 22:29:00,
2013-01-07 14:34:00,50.6,17.8,30.09,South,182,7.0,0.0,27,0.00,,,0.00,83,WeatherHawk,2013-01-07 22:34:00,
2013-01-07 14:39:00,51.6,16.0,30.10,SSW,199,11.0,-999.0,24,0.00,,,0.00,66,WeatherHawk,2013-01-07 22:39:00,
2013-01-07 14:44:00,51.6,15.0,30.11,SSW,207,9.0,0.0,23,0.00,,,0.00,53,WeatherHawk,2013-01-07 22:44:00,
2013-01-07 14:49:00,50.8,16.3,30.11,SW,220,7.0,0.0,25,0.00,,,0.00,58,WeatherHawk,2013-01-07 22:49:00,
2013-01-07 14:54:00,51.4,13.9,30.10,South,185,12.0,0.0,22,0.00,,,0.00,44,WeatherHawk,2013-01-07 22:54:00,
2013-01-07 14:59:00,51.2,13.7,30.11,SW,219,7.0,0.0,22,0.00,,,0.00,41,WeatherHawk,2013-01-07 22:59:00,
2013-01-07 15:04:00,51.3,12.7,30.11,SW,229,10.0,0.0,21,0.00,,,0.00,40,WeatherHawk,2013-01-07 23:04:00,
2013-01-07 15:09:00,51.3,15.7,30.12,WSW,247,11.0,0.0,24,0.00,,,0.00,46,WeatherHawk,2013-01-07 23:09:00,
2013-01-07 15:14:00,50.6,16.1,30.13,WSW,253,10.0,0.0,25,0.00,,,0.00,64,WeatherHawk,2013-01-07 23:14:00,
2013-01-07 15:19:00,50.5,16.0,30.13,WSW,249,9.0,-999.0,25,0.00,,,0.00,57,WeatherHawk,2013-01-07 23:19:00,
2013-01-07 15:24:00,50.3,17.6,30.13,WSW,257,13.0,0.0,27,0.00,,,0.00,62,WeatherHawk,2013-01-07 23:24:00,
2013-01-07 15:29:00,50.2,17.5,30.13,WSW,253,13.0,0.0,27,0.00,,,0.00,62,WeatherHawk,2013-01-07 23:29:00,
2013-01-07 15:34:00,49.3,17.6,30.13,WSW,240,7.0,0.0,28,0.00,,,0.00,69,WeatherHawk,2013-01-07 23:34:00,
2013-01-07 15:39:00,51.3,11.6,30.14,West,263,10.0,0.0,20,0.00,,,0.00,60,WeatherHawk,2013-01-07 23:39:00,
2013-01-07 15:44:00,50.5,12.1,30.14,WSW,254,12.0,0.0,21,0.00,,,0.00,56,WeatherHawk,2013-01-07 23:44:00,
2013-01-07 15:49:00,50.7,12.2,30.14,SW,236,13.0,-999.0,21,0.00,,,0.00,51,WeatherHawk,2013-01-07 23:49:00,
2013-01-07 15:54:00,51.4,11.7,30.13,WSW,256,8.0,0.0,20,0.00,,,0.00,92,WeatherHawk,2013-01-07 23:54:00,
2013-01-07 15:59:00,50.4,14.1,30.13,SW,235,12.0,-999.0,23,0.00,,,0.00,34,WeatherHawk,2013-01-07 23:59:00,
2013-01-07 16:04:00,50.4,13.0,30.13,SW,231,10.0,0.0,22,0.00,,,0.00,27,WeatherHawk,2013-01-08 00:04:00,
2013-01-07 16:09:00,49.7,13.4,30.13,WNW,282,7.0,-999.0,23,0.00,,,0.00,20,WeatherHawk,2013-01-08 00:09:00,
2013-01-07 16:14:00,50.3,14.9,30.12,West,262,11.0,0.0,24,0.00,,,0.00,15,WeatherHawk,2013-01-08 00:14:00,
2013-01-07 16:19:00,49.1,13.8,30.12,SW,222,4.0,-999.0,24,0.00,,,0.00,14,WeatherHawk,2013-01-08 00:19:00,
2013-01-07 16:24:00,49.5,15.1,30.11,SSE,158,8.0,-999.0,25,0.00,,,0.00,12,WeatherHawk,2013-01-08 00:24:00,
2013-01-07 16:29:00,49.3,15.0,30.12,SSW,196,6.0,0.0,25,0.00,,,0.00,10,WeatherHawk,2013-01-08 00:29:00,
2013-01-07 16:34:00,49.7,14.4,30.12,WSW,245,9.0,0.0,24,0.00,,,0.00,8,WeatherHawk,2013-01-08 00:34:00,
2013-01-07 16:39:00,50.0,14.7,30.12,SW,221,11.0,0.0,24,0.00,,,0.00,5,WeatherHawk,2013-01-08 00:39:00,
2013-01-07 16:44:00,50.3,7.2,30.12,WNW,288,14.0,-999.0,17,0.00,,,0.00,3,WeatherHawk,2013-01-08 00:44:00,
2013-01-07 16:49:00,49.5,5.2,30.13,West,259,6.0,0.0,16,0.00,,,0.00,2,WeatherHawk,2013-01-08 00:49:00,
2013-01-07 16:54:00,49.3,6.3,30.14,WSW,251,8.0,0.0,17,0.00,,,0.00,0,WeatherHawk,2013-01-08 00:54:00,
2013-01-07 16:59:00,51.3,5.2,30.13,SSW,202,11.0,-999.0,15,0.00,,,0.00,0,WeatherHawk,2013-01-08 00:59:00,
2013-01-07 17:04:00,50.1,2.8,30.13,SW,228,7.0,0.0,14,0.00,,,0.00,1,WeatherHawk,2013-01-08 01:04:00,
2013-01-07 17:09:00,49.6,5.3,30.12,WSW,243,3.0,-999.0,16,0.00,,,0.00,0,WeatherHawk,2013-01-08 01:09:00,
2013-01-07 17:14:00,50.8,7.6,30.13,SW,220,13.0,0.0,17,0.00,,,0.00,0,WeatherHawk,2013-01-08 01:14:00,
2013-01-07 17:19:00,50.3,3.0,30.14,WSW,255,4.0,0.0,14,0.00,,,0.00,0,WeatherHawk,2013-01-08 01:19:00,
2013-01-07 17:24:00,50.6,1.6,30.14,WSW,240,9.0,0.0,13,0.00,,,0.00,0,WeatherHawk,2013-01-08 01:24:00,
2013-01-07 17:29:00,49.4,3.8,30.14,West,280,5.0,0.0,15,0.00,,,0.00,1,WeatherHawk,2013-01-08 01:29:00,
2013-01-07 17:34:00,49.7,2.5,30.14,WSW,253,6.0,0.0,14,0.00,,,0.00,0,WeatherHawk,2013-01-08 01:34:00,
2013-01-07 17:39:00,50.8,1.8,30.13,SSW,206,14.0,-999.0,13,0.00,,,0.00,0,WeatherHawk,2013-01-08 01:39:00,
2013-01-07 17:44:00,50.2,5.8,30.14,West,261,15.0,0.0,16,0.00,,,0.00,0,WeatherHawk,2013-01-08 01:44:00,
2013-01-07 17:49:00,48.9,6.1,30.14,WSW,255,11.0,-999.0,17,0.00,,,0.00,1,WeatherHawk,2013-01-08 01:49:00,
2013-01-07 17:54:00,48.6,8.3,30.13,WSW,244,6.0,0.0,19,0.00,,,0.00,0,WeatherHawk,2013-01-08 01:54:00,
2013-01-07 17:59:00,48.0,7.7,30.13,WNW,303,6.0,0.0,19,0.00,,,0.00,0,WeatherHawk,2013-01-08 01:59:00,
2013-01-07 18:04:00,48.6,10.4,30.13,SW,234,10.0,0.0,21,0.00,,,0.00,0,WeatherHawk,2013-01-08 02:04:00,
2013-01-07 18:09:00,49.6,10.2,30.13,SW,222,12.0,-999.0,20,0.00,,,0.00,0,WeatherHawk,2013-01-08 02:09:00,
2013-01-07 18:14:00,48.7,8.3,30.13,NW,311,8.0,0.0,19,0.00,,,0.00,0,WeatherHawk,2013-01-08 02:14:00,
2013-01-07 18:19:00,48.3,10.2,30.13,WSW,241,6.0,0.0,21,0.00,,,0.00,0,WeatherHawk,2013-01-08 02:19:00,
2013-01-07 18:24:00,49.2,8.7,30.14,SW,222,10.0,0.0,19,0.00,,,0.00,0,WeatherHawk,2013-01-08 02:24:00,
2013-01-07 18:29:00,49.2,5.0,30.14,SW,219,8.0,0.0,16,0.00,,,0.00,0,WeatherHawk,2013-01-08 02:29:00,
2013-01-07 18:34:00,50.0,8.2,30.14,WSW,258,8.0,0.0,18,0.00,,,0.00,0,WeatherHawk,2013-01-08 02:34:00,
2013-01-07 18:39:00,48.2,6.7,30.14,West,269,4.0,0.0,18,0.00,,,0.00,0,WeatherHawk,2013-01-08 02:39:00,
2013-01-07 18:44:00,49.6,5.2,30.14,NW,305,5.0,0.0,16,0.00,,,0.00,0,WeatherHawk,2013-01-08 02:44:00,
2013-01-07 18:50:00,49.2,7.6,30.15,NNW,347,11.0,0.0,18,0.00,,,0.00,0,WeatherHawk,2013-01-08 02:50:00,
2013-01-07 18:55:00,49.4,5.1,30.15,WNW,290,6.0,0.0,16,0.00,,,0.00,0,WeatherHawk,2013-01-08 02:55:00,
2013-01-07 19:01:00,48.1,5.3,30.15,WSW,247,7.0,0.0,17,0.00,,,0.00,0,WeatherHawk,2013-01-08 03:01:00,
2013-01-07 19:06:00,50.0,2.7,30.14,WNW,282,9.0,0.0,14,0.00,,,0.00,0,WeatherHawk,2013-01-08 03:06:00,
2013-01-07 19:11:00,48.5,8.1,30.15,WSW,250,5.0,0.0,19,0.00,,,0.00,0,WeatherHawk,2013-01-08 03:11:00,
2013-01-07 19:17:00,49.0,7.4,30.15,WSW,246,7.0,0.0,18,0.00,,,0.00,0,WeatherHawk,2013-01-08 03:17:00,
2013-01-07 19:22:00,48.8,5.9,30.14,SSW,209,12.0,0.0,17,0.00,,,0.00,0,WeatherHawk,2013-01-08 03:22:00,
2013-01-07 19:27:00,47.5,7.4,30.13,SW,235,7.0,0.0,19,0.00,,,0.00,0,WeatherHawk,2013-01-08 03:27:00,
2013-01-07 19:32:00,48.2,12.2,30.14,WSW,242,9.0,0.0,23,0.00,,,0.00,0,WeatherHawk,2013-01-08 03:32:00,
2013-01-07 19:37:00,47.1,14.8,30.16,West,267,7.0,0.0,27,0.00,,,0.00,0,WeatherHawk,2013-01-08 03:37:00,
2013-01-07 19:42:00,47.3,15.1,30.16,WNW,283,13.0,0.0,27,0.00,,,0.00,0,WeatherHawk,2013-01-08 03:42:00,
2013-01-07 19:47:00,47.2,15.0,30.16,WSW,243,8.0,0.0,27,0.00,,,0.00,0,WeatherHawk,2013-01-08 03:47:00,
2013-01-07 19:52:00,48.2,14.1,30.16,WSW,241,14.0,0.0,25,0.00,,,0.00,0,WeatherHawk,2013-01-08 03:52:00,
2013-01-07 19:57:00,47.1,14.0,30.16,WSW,255,6.0,0.0,26,0.00,,,0.00,0,WeatherHawk,2013-01-08 03:57:00,
2013-01-07 20:03:00,47.2,14.9,30.15,WSW,240,8.0,0.0,27,0.00,,,0.00,1,WeatherHawk,2013-01-08 04:03:00,
2013-01-07 20:09:00,47.3,15.1,30.16,WSW,252,13.0,0.0,27,0.00,,,0.00,1,WeatherHawk,2013-01-08 04:09:00,
2013-01-07 20:13:00,46.6,13.6,30.16,SW,233,6.0,0.0,26,0.00,,,0.00,0,WeatherHawk,2013-01-08 04:13:00,
2013-01-07 20:18:00,47.8,14.6,30.16,SSW,195,11.0,0.0,26,0.00,,,0.00,0,WeatherHawk,2013-01-08 04:18:00,
2013-01-07 20:24:00,46.2,14.1,30.16,South,175,6.0,0.0,27,0.00,,,0.00,0,WeatherHawk,2013-01-08 04:24:00,
2013-01-07 20:29:00,47.0,15.6,30.15,WSW,242,13.0,0.0,28,0.00,,,0.00,0,WeatherHawk,2013-01-08 04:29:00,
2013-01-07 20:34:00,46.5,15.2,30.15,WNW,298,14.0,0.0,28,0.00,,,0.00,0,WeatherHawk,2013-01-08 04:34:00,
2013-01-07 20:39:00,46.5,15.2,30.15,SW,214,14.0,0.0,28,0.00,,,0.00,0,WeatherHawk,2013-01-08 04:39:00,
2013-01-07 20:44:00,47.0,15.6,30.15,West,264,10.0,0.0,28,0.00,,,0.00,0,WeatherHawk,2013-01-08 04:44:00,
2013-01-07 20:49:00,47.2,14.9,30.15,WSW,254,8.0,0.0,27,0.00,,,0.00,0,WeatherHawk,2013-01-08 04:49:00,
2013-01-07 20:54:00,46.8,15.4,30.15,West,261,11.0,0.0,28,0.00,,,0.00,0,WeatherHawk,2013-01-08 04:54:00,
2013-01-07 20:59:00,47.0,14.8,30.15,SSW,206,6.0,0.0,27,0.00,,,0.00,0,WeatherHawk,2013-01-08 04:59:00,
2013-01-07 21:00:00,46.7,15.4,30.15,WSW,248,8.0,0.0,28,0.00,,,0.00,0,WeatherHawk,2013-01-08 05:00:00,
2013-01-07 21:02:00,46.4,14.3,30.15,SSW,206,9.0,0.0,27,0.00,,,0.00,0,WeatherHawk,2013-01-08 05:02:00,
2013-01-07 21:04:00,47.3,15.9,30.16,WNW,287,14.0,0.0,28,0.00,,,0.00,1,WeatherHawk,2013-01-08 05:04:00,
2013-01-07 21:09:00,46.5,15.2,30.16,West,281,8.0,0.0,28,0.00,,,0.00,0,WeatherHawk,2013-01-08 05:09:00,
2013-01-07 21:14:00,46.8,17.0,30.15,SW,235,8.0,-999.0,30,0.00,,,0.00,0,WeatherHawk,2013-01-08 05:14:00,
2013-01-07 21:19:00,46.8,17.8,30.16,SSW,207,12.0,0.0,31,0.00,,,0.00,0,WeatherHawk,2013-01-08 05:19:00,
2013-01-07 21:24:00,47.7,17.8,30.15,SSW,210,16.0,0.0,30,0.00,,,0.00,1,WeatherHawk,2013-01-08 05:24:00,
2013-01-07 21:29:00,47.3,18.2,30.15,WNW,287,13.0,-999.0,31,0.00,,,0.00,0,WeatherHawk,2013-01-08 05:29:00,
2013-01-07 21:35:00,47.5,18.4,30.15,WSW,241,12.0,0.0,31,0.00,,,0.00,0,WeatherHawk,2013-01-08 05:35:00,
2013-01-07 21:40:00,47.3,16.7,30.16,West,268,8.0,0.0,29,0.00,,,0.00,1,WeatherHawk,2013-01-08 05:40:00,
2013-01-07 21:45:00,46.2,17.3,30.16,SW,224,6.0,0.0,31,0.00,,,0.00,0,WeatherHawk,2013-01-08 05:45:00,
2013-01-07 21:50:00,47.3,15.9,30.16,WSW,239,12.0,0.0,28,0.00,,,0.00,0,WeatherHawk,2013-01-08 05:50:00,
2013-01-07 21:55:00,46.9,14.7,30.16,SSW,211,12.0,0.0,27,0.00,,,0.00,0,WeatherHawk,2013-01-08 05:55:00,
2013-01-07 22:00:00,46.7,14.5,30.16,WSW,251,9.0,0.0,27,0.00,,,0.00,0,WeatherHawk,2013-01-08 06:00:00,
2013-01-07 22:05:00,46.8,14.6,30.16,SW,231,8.0,0.0,27,0.00,,,0.00,0,WeatherHawk,2013-01-08 06:05:00,
2013-01-07 22:10:00,47.1,14.0,30.16,SW,232,20.0,0.0,26,0.00,,,0.00,0,WeatherHawk,2013-01-08 06:10:00,
2013-01-07 22:16:00,46.3,14.2,30.16,WSW,246,8.0,0.0,27,0.00,,,0.00,0,WeatherHawk,2013-01-08 06:16:00,
2013-01-07 22:21:00,46.7,13.7,30.16,WSW,248,6.0,0.0,26,0.00,,,0.00,0,WeatherHawk,2013-01-08 06:21:00,
2013-01-07 22:26:00,46.5,12.6,30.16,West,269,10.0,0.0,25,0.00,,,0.00,0,WeatherHawk,2013-01-08 06:26:00,
2013-01-07 22:31:00,46.4,14.3,30.17,West,264,6.0,0.0,27,0.00,,,0.00,0,WeatherHawk,2013-01-08 06:31:00,
2013-01-07 22:36:00,46.7,14.6,30.17,West,260,8.0,0.0,27,0.00,,,0.00,1,WeatherHawk,2013-01-08 06:36:00,
2013-01-07 22:41:00,46.0,14.8,30.17,SW,234,8.0,0.0,28,0.00,,,0.00,0,WeatherHawk,2013-01-08 06:41:00,
2013-01-07 22:46:00,46.5,16.8,30.17,WSW,251,8.0,0.0,30,0.00,,,0.00,0,WeatherHawk,2013-01-08 06:46:00,
2013-01-07 22:51:00,46.0,16.3,30.17,SSW,212,6.0,0.0,30,0.00,,,0.00,0,WeatherHawk,2013-01-08 06:51:00,
2013-01-07 22:57:00,45.5,16.7,30.17,WNW,292,7.0,0.0,31,0.00,,,0.00,0,WeatherHawk,2013-01-08 06:57:00,
2013-01-07 23:02:00,46.1,17.9,30.17,SW,234,8.0,0.0,32,0.00,,,0.00,0,WeatherHawk,2013-01-08 07:02:00,
2013-01-07 23:07:00,45.6,17.4,30.17,WSW,249,9.0,0.0,32,0.00,,,0.00,0,WeatherHawk,2013-01-08 07:07:00,
2013-01-07 23:12:00,45.9,17.7,30.17,SW,214,11.0,0.0,32,0.00,,,0.00,0,WeatherHawk,2013-01-08 07:12:00,
2013-01-07 23:17:00,45.8,17.6,30.17,SSW,200,6.0,0.0,32,0.00,,,0.00,0,WeatherHawk,2013-01-08 07:17:00,
2013-01-07 23:22:00,45.6,18.2,30.17,WSW,237,5.0,0.0,33,0.00,,,0.00,0,WeatherHawk,2013-01-08 07:22:00,
2013-01-07 23:27:00,45.7,17.6,30.17,WSW,239,10.0,0.0,32,0.00,,,0.00,0,WeatherHawk,2013-01-08 07:27:00,
2013-01-07 23:32:00,45.4,17.3,30.17,West,270,5.0,0.0,32,0.00,,,0.00,0,WeatherHawk,2013-01-08 07:32:00,
2013-01-07 23:37:00,45.5,17.4,30.17,SSW,199,7.0,0.0,32,0.00,,,0.00,0,WeatherHawk,2013-01-08 07:37:00,
2013-01-07 23:42:00,45.4,18.0,30.17,NW,308,5.0,0.0,33,0.00,,,0.00,0,WeatherHawk,2013-01-08 07:42:00,
2013-01-07 23:47:00,45.7,18.2,30.17,SSW,211,7.0,0.0,33,0.00,,,0.00,0,WeatherHawk,2013-01-08 07:47:00,
2013-01-07 23:52:00,46.0,18.5,30.17,SSW,208,8.0,0.0,33,0.00,,,0.00,0,WeatherHawk,2013-01-08 07:52:00,
2013-01-07 23:57:00,45.2,18.5,30.17,SW,218,4.0,0.0,34,0.00,,,0.00,0,WeatherHawk,2013-01-08 07:57:00,